Lulu Pass Weather Station

This weather station provides temperature, relative humidity (RH), wind speed, gust or max wind speed, and wind direction at 10014ft near Lulu Pass at the head of Fisher Creek. This data can be used with temperature and precipitation data from the Fisher Creek SNOTEL site.

This weather station was purchased by the Friends of the Avalanche Center.

If the data has not been updated recently you can view it directly on datagarrison.com

Elevation
10014ft
Jump to table bottom
Date Time Temperature
deg F
RH, % Wind Speed Wind Gust Wind Direction
01/24/22 06:00 9.7 75 9 12 NW - 324
01/24/22 05:00 9.8 76 10 14 NW - 324
01/24/22 04:00 9.8 76 5 9 NW - 309
01/24/22 03:00 10.3 74 5 11 W - 289
01/24/22 02:00 12.6 74 9 15 NW - 329
01/24/22 01:00 13.0 74 9 15 NW - 300
01/24/22 00:00 12.2 76 7 15 W - 282
01/23/22 23:00 12.6 75 6 13 W - 257
01/23/22 22:00 14.0 73 9 18 W - 279
01/23/22 21:00 15.3 67 19 27 NW - 307
01/23/22 20:00 17.9 72 20 27 NW - 320
01/23/22 19:00 16.9 77 16 23 NW - 314
01/23/22 18:00 17.1 80 21 28 NW - 323
01/23/22 17:00 18.1 76 22 30 NW - 298
01/23/22 16:00 19.8 78 17 26 NW - 313
01/23/22 15:00 19.2 70 16 26 NW - 320
01/23/22 14:00 20.6 72 26 34 NW - 305
01/23/22 13:00 18.0 88 24 32 NW - 307
01/23/22 12:00 18.5 95 29 37 NW - 306
01/23/22 11:00 17.3 95 26 32 NW - 298
01/23/22 10:00 16.7 95 24 29 NW - 305
01/23/22 09:00 16.1 94 21 26 NW - 313
01/23/22 08:00 13.6 94 8 18 N - 343
01/23/22 07:00 14.2 94 9 20 NW - 313
01/23/22 06:00 14.7 94 12 16 NW - 316
01/23/22 05:00 13.8 94 13 21 NW - 316
01/23/22 04:00 15.0 94 13 19 NW - 320
01/23/22 03:00 14.4 94 10 16 NW - 330
01/23/22 02:00 13.9 94 12 17 NW - 337
01/23/22 01:00 16.2 94 8 13 NW - 324
01/23/22 00:00 16.2 94 9 13 NW - 329
01/22/22 23:00 15.7 94 8 15 NW - 313
01/22/22 22:00 16.6 95 8 13 NW - 299
01/22/22 21:00 16.8 94 7 11 NW - 298
01/22/22 20:00 15.9 94 5 10 NW - 310
01/22/22 19:00 17.5 95 6 10 NW - 293
01/22/22 18:00 17.8 95 5 10 W - 292
01/22/22 17:00 16.5 95 13 17 NW - 312
01/22/22 16:00 18.8 96 10 17 NW - 314
01/22/22 15:00 18.1 96 15 19 NW - 312
01/22/22 14:00 17.5 95 12 17 NW - 310
01/22/22 13:00 16.9 95 10 16 NW - 302
01/22/22 12:00 16.8 95 5 10 NW - 319
01/22/22 11:00 14.6 95 4 6 NW - 314
01/22/22 10:00 14.0 94 3 5 NW - 310
01/22/22 09:00 10.8 92 5 9 NW - 324
01/22/22 08:00 6.0 90 10 14 NW - 314
01/22/22 07:00 5.1 90 9 13 NW - 305
01/22/22 06:00 6.4 91 13 17 NW - 306
01/22/22 05:00 7.4 91 15 20 NW - 306